createdAt,value
2023-03-28T00:02:06.585Z,10.57
2023-03-28T00:04:34.645Z,9.25
2023-03-28T00:07:02.690Z,6.55
2023-03-28T00:09:32.963Z,9.70
2023-03-28T00:12:00.995Z,5.78
2023-03-28T00:14:29.317Z,5.95
2023-03-28T00:16:57.290Z,9.27
2023-03-28T00:19:25.310Z,11.95
2023-03-28T00:21:54.821Z,7.50
2023-03-28T00:24:22.843Z,7.53
2023-03-28T00:26:54.759Z,8.38
2023-03-28T00:29:26.179Z,7.57
2023-03-28T00:31:54.160Z,8.48
2023-03-28T00:34:22.135Z,7.25
2023-03-28T00:36:50.676Z,5.03
2023-03-28T00:39:18.671Z,7.43
2023-03-28T00:41:46.910Z,6.07
2023-03-28T00:44:54.356Z,6.65
2023-03-28T00:47:42.075Z,9.18
2023-03-28T00:50:15.006Z,9.65
2023-03-28T00:52:47.312Z,11.77
2023-03-28T00:57:46.414Z,8.15
2023-03-28T01:00:18.968Z,11.18
2023-03-28T01:02:52.452Z,7.00
2023-03-28T01:05:25.080Z,7.75
2023-03-28T01:07:59.125Z,5.85
2023-03-28T01:10:27.130Z,7.22
2023-03-28T01:12:57.676Z,9.50
2023-03-28T01:15:25.946Z,6.53
2023-03-28T01:17:56.227Z,6.63
2023-03-28T01:20:46.761Z,7.15
2023-03-28T01:23:53.530Z,8.30
2023-03-28T01:26:48.398Z,6.53
2023-03-28T01:29:49.382Z,8.95
2023-03-28T01:32:40.775Z,8.13
2023-03-28T01:35:37.732Z,8.52
2023-03-28T01:38:14.518Z,7.90
2023-03-28T01:40:48.363Z,7.10
2023-03-28T01:43:31.808Z,5.90
2023-03-28T01:46:07.157Z,7.88
2023-03-28T01:48:44.373Z,8.45
2023-03-28T01:51:21.810Z,5.78
2023-03-28T01:53:59.125Z,7.47
2023-03-28T01:56:34.400Z,7.47
2023-03-28T01:59:09.560Z,7.43
2023-03-28T02:01:47.179Z,7.97
2023-03-28T02:04:21.419Z,11.48
2023-03-28T02:06:52.688Z,7.28
2023-03-28T02:09:26.091Z,6.90
2023-03-28T02:11:58.055Z,6.70
2023-03-28T02:14:31.397Z,12.85
2023-03-28T02:17:04.732Z,8.65
2023-03-28T02:19:36.005Z,7.43
2023-03-28T02:22:13.501Z,5.10
2023-03-28T02:24:43.213Z,10.52
2023-03-28T02:27:11.284Z,6.70
2023-03-28T02:29:40.001Z,14.15
2023-03-28T02:32:08.575Z,10.80
2023-03-28T02:34:36.937Z,7.80
2023-03-28T02:37:17.096Z,8.15
2023-03-28T02:39:52.191Z,8.13
2023-03-28T02:42:49.353Z,6.72
2023-03-28T02:45:28.810Z,8.93
2023-03-28T02:48:04.726Z,5.32
2023-03-28T02:50:40.619Z,10.20
2023-03-28T02:53:13.740Z,6.57
2023-03-28T02:55:51.769Z,5.07
2023-03-28T02:58:24.819Z,6.13
2023-03-28T03:00:54.060Z,10.43
2023-03-28T03:03:23.628Z,7.40
2023-03-28T03:05:52.009Z,6.20
2023-03-28T03:08:20.303Z,6.60
2023-03-28T03:10:49.706Z,6.25
2023-03-28T03:13:17.742Z,5.18
2023-03-28T03:15:46.244Z,10.18
2023-03-28T03:18:14.459Z,8.20
2023-03-28T03:20:45.766Z,7.25
2023-03-28T03:23:14.313Z,6.55
2023-03-28T03:25:43.347Z,6.43
2023-03-28T03:28:13.044Z,10.40
2023-03-28T03:30:41.275Z,7.32
2023-03-28T03:33:10.630Z,10.48
2023-03-28T03:35:42.162Z,11.48
2023-03-28T03:38:10.696Z,8.93
2023-03-28T03:40:39.009Z,8.48
2023-03-28T03:43:07.068Z,9.90
2023-03-28T03:45:37.926Z,7.72
2023-03-28T03:48:06.455Z,8.02
2023-03-28T03:50:34.695Z,7.20
2023-03-28T03:53:02.885Z,5.85
2023-03-28T03:55:32.727Z,9.40
2023-03-28T03:58:01.489Z,6.05
2023-03-28T04:00:29.539Z,6.97
2023-03-28T04:02:59.216Z,10.02
2023-03-28T04:05:27.235Z,9.38
2023-03-28T04:07:57.539Z,15.10
2023-03-28T04:10:25.643Z,8.52
2023-03-28T04:12:53.608Z,7.97
2023-03-28T04:15:21.642Z,6.95
2023-03-28T04:17:50.437Z,5.78
2023-03-28T04:20:21.161Z,5.90
2023-03-28T04:22:50.391Z,6.85
2023-03-28T04:25:19.040Z,6.78
2023-03-28T04:27:48.906Z,9.55
2023-03-28T04:30:17.720Z,9.57
2023-03-28T04:32:49.439Z,11.15
2023-03-28T04:35:19.242Z,7.85
2023-03-28T04:37:47.410Z,13.93
2023-03-28T04:40:17.853Z,13.30
2023-03-28T04:42:46.835Z,6.93
2023-03-28T04:45:17.604Z,8.07
2023-03-28T04:47:46.295Z,11.30
2023-03-28T04:50:14.395Z,10.30
2023-03-28T04:52:44.058Z,8.52
2023-03-28T04:55:12.230Z,8.95
2023-03-28T04:57:40.568Z,10.20
2023-03-28T05:00:10.763Z,9.15
2023-03-28T05:02:39.487Z,14.60
2023-03-28T05:05:08.906Z,12.65
2023-03-28T05:07:37.431Z,12.63
2023-03-28T05:10:08.470Z,11.23
2023-03-28T05:12:36.479Z,13.23
2023-03-28T05:15:04.805Z,7.95
2023-03-28T05:17:32.787Z,12.98
2023-03-28T05:20:00.874Z,12.32
2023-03-28T05:22:29.082Z,9.27
2023-03-28T05:24:57.073Z,8.18
2023-03-28T05:27:26.743Z,11.30
2023-03-28T05:29:54.682Z,11.30
2023-03-28T05:32:23.371Z,9.63
2023-03-28T05:34:51.883Z,11.15
2023-03-28T05:37:20.026Z,15.20
2023-03-28T05:39:48.138Z,9.60
2023-03-28T05:42:16.151Z,10.68
2023-03-28T05:44:45.539Z,14.05
2023-03-28T05:47:13.532Z,13.80
2023-03-28T05:49:41.869Z,14.10
2023-03-28T05:52:09.971Z,13.63
2023-03-28T05:54:38.092Z,12.82
2023-03-28T05:57:06.264Z,18.92
2023-03-28T05:59:34.349Z,11.95
2023-03-28T06:02:03.746Z,13.85
2023-03-28T06:04:32.583Z,12.15
2023-03-28T06:07:03.102Z,13.80
2023-03-28T06:09:31.617Z,18.38
2023-03-28T06:12:00.218Z,16.10
2023-03-28T06:14:28.614Z,18.42
2023-03-28T06:16:56.737Z,14.70
2023-03-28T06:19:27.316Z,19.00
2023-03-28T06:21:55.862Z,14.70
2023-03-28T06:24:24.174Z,16.00
2023-03-28T06:26:52.373Z,15.82
2023-03-28T06:29:21.831Z,16.80
2023-03-28T06:31:50.027Z,12.13
2023-03-28T06:34:18.786Z,20.27
2023-03-28T06:36:48.465Z,16.52
2023-03-28T06:39:16.723Z,17.35
2023-03-28T06:41:44.790Z,13.50
2023-03-28T06:44:12.922Z,12.77
2023-03-28T06:46:41.193Z,16.38
2023-03-28T06:49:09.227Z,11.52
2023-03-28T06:51:37.450Z,12.02
2023-03-28T06:54:07.071Z,11.60
2023-03-28T06:56:35.450Z,10.63
2023-03-28T06:59:03.733Z,11.02
2023-03-28T07:01:32.064Z,9.45
2023-03-28T07:04:00.255Z,9.80
2023-03-28T07:06:28.875Z,14.20
2023-03-28T07:08:59.292Z,15.70
2023-03-28T07:11:29.114Z,16.55
2023-03-28T07:13:57.544Z,8.60
2023-03-28T07:16:25.941Z,15.05
2023-03-28T07:18:54.161Z,12.77
2023-03-28T07:21:22.504Z,14.07
2023-03-28T07:23:50.654Z,9.05
2023-03-28T07:26:19.398Z,11.32
2023-03-28T07:28:49.218Z,12.02
2023-03-28T07:31:18.414Z,8.88
2023-03-28T07:33:46.719Z,9.40
2023-03-28T07:36:17.644Z,13.30
2023-03-28T07:38:48.404Z,10.63
2023-03-28T07:41:17.470Z,12.88
2023-03-28T07:43:45.944Z,10.40
2023-03-28T07:46:16.616Z,11.10
2023-03-28T07:48:46.717Z,12.85
2023-03-28T07:51:15.244Z,8.50
2023-03-28T07:53:43.665Z,7.60
2023-03-28T07:56:12.447Z,6.50
2023-03-28T07:58:40.990Z,7.72
2023-03-28T08:01:10.230Z,7.68
2023-03-28T08:03:40.103Z,11.15
2023-03-28T08:06:24.191Z,7.22
2023-03-28T08:08:53.417Z,6.50
2023-03-28T08:11:21.696Z,7.13
2023-03-28T08:13:50.001Z,7.97
2023-03-28T08:16:18.257Z,5.68
2023-03-28T08:18:56.966Z,7.65
2023-03-28T08:21:32.235Z,10.13
2023-03-28T08:24:00.486Z,9.35
2023-03-28T08:26:29.003Z,10.15
2023-03-28T08:28:58.998Z,11.02
2023-03-28T08:31:28.999Z,9.02
2023-03-28T08:33:59.522Z,7.50
2023-03-28T08:36:29.019Z,8.45
2023-03-28T08:39:00.724Z,8.55
2023-03-28T08:41:47.393Z,9.48
2023-03-28T08:44:37.925Z,8.80
2023-03-28T08:47:12.912Z,8.80
2023-03-28T08:49:47.623Z,9.80
2023-03-28T08:52:19.877Z,10.77
2023-03-28T08:54:51.155Z,11.25
2023-03-28T08:57:25.029Z,9.25
2023-03-28T09:00:00.913Z,10.63
2023-03-28T09:02:31.286Z,11.30
2023-03-28T09:05:21.557Z,8.38
2023-03-28T09:07:59.927Z,11.38
2023-03-28T09:10:33.625Z,9.30
2023-03-28T09:13:10.413Z,7.00
2023-03-28T09:15:51.110Z,9.95
2023-03-28T09:18:31.722Z,11.60
2023-03-28T09:21:06.002Z,10.63
2023-03-28T09:23:52.832Z,8.02
2023-03-28T09:26:25.377Z,8.27
2023-03-28T09:28:58.517Z,8.63
2023-03-28T09:31:31.694Z,5.93
2023-03-28T09:34:00.461Z,8.10
2023-03-28T09:36:45.386Z,5.72
2023-03-28T09:39:27.283Z,6.10
2023-03-28T09:42:01.061Z,5.40
2023-03-28T09:44:40.933Z,5.32
2023-03-28T09:47:19.823Z,6.82
2023-03-28T09:49:49.572Z,8.43
2023-03-28T09:52:23.101Z,6.80
2023-03-28T09:54:51.782Z,7.40
2023-03-28T09:57:20.138Z,10.27
2023-03-28T09:59:48.389Z,5.43
2023-03-28T10:02:29.265Z,5.63
2023-03-28T10:04:57.835Z,5.03
2023-03-28T10:07:45.933Z,8.80
2023-03-28T10:10:21.770Z,5.78
2023-03-28T10:12:50.530Z,4.60
2023-03-28T10:15:33.750Z,7.47
2023-03-28T10:18:03.545Z,6.30
2023-03-28T10:20:37.817Z,6.18
2023-03-28T10:23:07.425Z,8.38
2023-03-28T10:25:41.110Z,5.55
2023-03-28T10:28:15.128Z,5.55
2023-03-28T10:30:43.860Z,7.28
2023-03-28T10:33:25.586Z,6.93
2023-03-28T10:35:59.844Z,7.70
2023-03-28T10:38:36.427Z,5.50
2023-03-28T10:41:08.152Z,7.57
2023-03-28T10:43:38.785Z,9.70
2023-03-28T10:46:14.359Z,6.03
2023-03-28T10:48:47.587Z,5.68
2023-03-28T10:51:19.414Z,10.85
2023-03-28T10:54:20.365Z,9.95
2023-03-28T10:56:54.149Z,6.28
2023-03-28T10:59:39.168Z,9.98
2023-03-28T11:02:37.812Z,7.03
2023-03-28T11:05:21.601Z,9.13
2023-03-28T11:07:59.183Z,9.27
2023-03-28T11:10:34.934Z,12.25
2023-03-28T11:13:16.696Z,11.38
2023-03-28T11:15:55.149Z,8.83
2023-03-28T11:18:34.216Z,12.88
2023-03-28T11:21:18.032Z,10.00
2023-03-28T11:23:48.852Z,12.00
2023-03-28T11:26:20.942Z,11.68
2023-03-28T11:29:05.486Z,11.38
2023-03-28T11:31:39.074Z,13.70
2023-03-28T11:34:13.548Z,12.80
2023-03-28T11:36:47.672Z,12.40
2023-03-28T11:39:21.748Z,8.82
2023-03-28T11:41:51.562Z,10.70
2023-03-28T11:44:27.401Z,11.35
2023-03-28T11:46:59.639Z,10.60
2023-03-28T11:49:33.811Z,12.45
2023-03-28T11:52:07.233Z,13.30
2023-03-28T11:54:41.382Z,10.13
2023-03-28T11:57:19.920Z,10.23
2023-03-28T11:59:54.114Z,14.05
2023-03-28T12:02:41.383Z,6.72
2023-03-28T12:05:19.769Z,8.50
2023-03-28T12:07:54.009Z,7.38
2023-03-28T12:10:25.432Z,9.15
2023-03-28T12:13:03.131Z,10.70
2023-03-28T12:15:38.468Z,9.38
2023-03-28T12:18:12.033Z,6.47
2023-03-28T12:20:45.413Z,7.55
2023-03-28T12:23:22.420Z,5.88
2023-03-28T12:26:01.414Z,8.55
2023-03-28T12:28:37.152Z,5.15
2023-03-28T12:31:12.757Z,7.07
2023-03-28T12:33:52.069Z,7.50
2023-03-28T12:36:28.701Z,7.70
2023-03-28T12:39:02.035Z,8.32
2023-03-28T12:41:33.072Z,9.45
2023-03-28T12:44:08.042Z,9.05
2023-03-28T12:46:46.174Z,7.78
2023-03-28T12:49:20.068Z,6.38
2023-03-28T12:51:50.129Z,6.38
2023-03-28T12:54:27.287Z,8.80
2023-03-28T12:57:05.648Z,8.60
2023-03-28T13:00:00.538Z,6.40
2023-03-28T13:02:38.262Z,8.02
2023-03-28T13:05:16.257Z,7.53
2023-03-28T13:07:58.715Z,8.48
2023-03-28T13:10:37.311Z,7.93
2023-03-28T13:13:18.610Z,8.63
2023-03-28T13:16:02.929Z,6.38
2023-03-28T13:18:35.729Z,7.57
2023-03-28T13:21:07.330Z,9.02
2023-03-28T13:23:48.048Z,8.65
2023-03-28T13:26:16.445Z,11.18
2023-03-28T13:28:47.859Z,5.70
2023-03-28T13:31:24.850Z,13.07
2023-03-28T13:34:01.790Z,9.02
2023-03-28T13:36:32.764Z,6.80
2023-03-28T13:39:09.487Z,7.53
2023-03-28T13:42:04.725Z,8.13
2023-03-28T13:44:40.140Z,10.30
2023-03-28T13:47:16.402Z,9.20
2023-03-28T13:49:51.604Z,9.15
2023-03-28T13:52:22.793Z,10.00
2023-03-28T13:54:54.352Z,9.55
2023-03-28T13:57:26.076Z,9.90
2023-03-28T13:59:56.544Z,8.18
2023-03-28T14:02:34.212Z,9.23
2023-03-28T14:05:15.654Z,9.38
2023-03-28T14:07:43.864Z,9.77
2023-03-28T14:10:30.678Z,8.13
2023-03-28T14:13:01.998Z,8.95
2023-03-28T14:15:32.179Z,8.77
2023-03-28T14:18:01.185Z,8.90
2023-03-28T14:20:31.732Z,8.43
2023-03-28T14:23:01.387Z,11.32
2023-03-28T14:25:31.556Z,10.80
2023-03-28T14:28:08.932Z,11.80
2023-03-28T14:30:41.084Z,8.10
2023-03-28T14:33:21.042Z,9.48
2023-03-28T14:36:00.166Z,7.07
2023-03-28T14:38:30.807Z,8.80
2023-03-28T14:41:08.252Z,12.10
2023-03-28T14:43:37.286Z,10.05
2023-03-28T14:46:09.286Z,9.35
2023-03-28T14:48:39.173Z,9.77
2023-03-28T14:51:13.928Z,7.55
2023-03-28T14:53:45.732Z,8.45
2023-03-28T14:56:17.504Z,8.05
2023-03-28T14:58:50.020Z,10.32
2023-03-28T15:01:23.046Z,9.40
2023-03-28T15:03:55.043Z,12.07
2023-03-28T15:06:26.097Z,9.73
2023-03-28T15:08:56.227Z,10.88
2023-03-28T15:11:27.820Z,8.00
2023-03-28T15:14:02.303Z,7.83
2023-03-28T15:16:33.285Z,13.02
2023-03-28T15:19:07.061Z,11.10
2023-03-28T15:21:38.121Z,13.75
2023-03-28T15:24:10.990Z,10.65
2023-03-28T15:26:43.064Z,9.18
2023-03-28T15:29:17.136Z,9.93
2023-03-28T15:31:46.229Z,11.93
2023-03-28T15:34:21.575Z,7.90
2023-03-28T15:36:54.409Z,9.35
2023-03-28T15:39:25.792Z,8.32
2023-03-28T15:41:56.518Z,7.85
2023-03-28T15:44:28.618Z,9.23
2023-03-28T15:46:59.779Z,8.52
2023-03-28T15:49:28.586Z,8.55
2023-03-28T15:52:02.837Z,11.48
2023-03-28T15:54:32.388Z,12.25
2023-03-28T15:57:03.186Z,9.02
2023-03-28T15:59:37.213Z,9.50
2023-03-28T16:02:30.941Z,9.38
2023-03-28T16:05:06.440Z,9.57
2023-03-28T16:07:38.657Z,11.07
2023-03-28T16:10:14.650Z,9.68
2023-03-28T16:12:43.184Z,9.20
2023-03-28T16:15:12.036Z,10.40
2023-03-28T16:17:42.191Z,12.00
2023-03-28T16:20:15.768Z,9.90
2023-03-28T16:22:45.482Z,12.18
2023-03-28T16:25:13.938Z,9.20
2023-03-28T16:27:42.892Z,9.23
2023-03-28T16:30:19.133Z,12.23
2023-03-28T16:32:47.388Z,10.38
2023-03-28T16:35:15.853Z,10.82
2023-03-28T16:37:45.589Z,13.32
2023-03-28T16:40:14.329Z,11.45
2023-03-28T16:42:42.793Z,9.20
2023-03-28T16:45:13.019Z,10.60
2023-03-28T16:47:41.658Z,8.82
2023-03-28T16:50:11.196Z,12.48
2023-03-28T16:52:40.313Z,8.15
2023-03-28T16:55:11.837Z,9.52
2023-03-28T16:57:39.971Z,10.83
2023-03-28T17:00:11.640Z,8.07
2023-03-28T17:02:39.895Z,10.20
2023-03-28T17:05:08.715Z,11.02
2023-03-28T17:07:36.885Z,8.63
2023-03-28T17:10:05.442Z,10.73
2023-03-28T17:12:35.133Z,12.10
2023-03-28T17:15:03.839Z,9.63
2023-03-28T17:17:31.971Z,11.25
2023-03-28T17:20:01.150Z,10.05
2023-03-28T17:22:29.264Z,11.15
2023-03-28T17:24:57.968Z,10.27
2023-03-28T17:27:25.982Z,10.65
2023-03-28T17:29:55.565Z,8.55
2023-03-28T17:32:23.762Z,9.95
2023-03-28T17:34:52.126Z,9.75
2023-03-28T17:37:22.176Z,8.30
2023-03-28T17:39:50.115Z,8.18
2023-03-28T17:42:18.061Z,10.70
2023-03-28T17:44:46.052Z,6.90
2023-03-28T17:47:16.238Z,9.80
2023-03-28T17:49:44.437Z,12.07
2023-03-28T17:52:12.850Z,8.05
2023-03-28T17:54:41.055Z,7.65
2023-03-28T17:57:09.564Z,7.38
2023-03-28T17:59:37.871Z,7.93
2023-03-28T18:02:05.936Z,7.72
2023-03-28T18:04:35.675Z,7.00
2023-03-28T18:07:15.902Z,7.78
2023-03-28T18:09:44.932Z,6.60
2023-03-28T18:12:14.100Z,6.00
2023-03-28T18:14:42.314Z,9.55
2023-03-28T18:17:10.387Z,6.95
2023-03-28T18:19:40.131Z,6.95
2023-03-28T18:22:08.887Z,4.55
2023-03-28T18:24:38.075Z,5.07
2023-03-28T18:27:06.130Z,5.88
2023-03-28T18:29:34.366Z,6.43
2023-03-28T18:32:02.475Z,7.30
2023-03-28T18:34:30.856Z,8.07
2023-03-28T18:37:00.300Z,8.68
2023-03-28T18:39:29.313Z,10.75
2023-03-28T18:41:57.727Z,7.95
2023-03-28T18:44:25.936Z,8.20
2023-03-28T18:46:55.713Z,8.57
2023-03-28T18:49:24.170Z,11.10
2023-03-28T18:51:52.767Z,10.07
2023-03-28T18:54:23.028Z,8.38
2023-03-28T18:56:51.378Z,9.68
2023-03-28T18:59:20.266Z,9.18
2023-03-28T19:01:51.582Z,10.38
2023-03-28T19:04:20.351Z,9.45
2023-03-28T19:06:49.242Z,11.90
2023-03-28T19:09:17.395Z,10.80
2023-03-28T19:11:46.778Z,11.13
2023-03-28T19:14:14.831Z,10.80
2023-03-28T19:16:43.014Z,9.98
2023-03-28T19:19:11.027Z,12.30
2023-03-28T19:21:39.037Z,12.15
2023-03-28T19:24:07.834Z,10.13
2023-03-28T19:26:37.127Z,10.20
2023-03-28T19:29:06.642Z,8.98
2023-03-28T19:31:34.676Z,8.95
2023-03-28T19:34:03.052Z,7.95
2023-03-28T19:36:31.020Z,7.72
2023-03-28T19:38:59.031Z,8.00
2023-03-28T19:41:27.562Z,6.25
2023-03-28T19:43:56.305Z,6.65
2023-03-28T19:46:33.214Z,5.93
2023-03-28T19:49:05.675Z,5.38
2023-03-28T19:51:34.726Z,5.70
2023-03-28T19:54:03.004Z,6.00
2023-03-28T19:56:31.140Z,6.07
2023-03-28T19:58:59.417Z,6.75
2023-03-28T20:01:28.844Z,5.40
2023-03-28T20:03:57.184Z,5.40
2023-03-28T20:06:25.344Z,4.50
2023-03-28T20:08:53.721Z,7.10
2023-03-28T20:11:22.145Z,6.57
2023-03-28T20:13:50.770Z,4.95
2023-03-28T20:16:18.832Z,5.88
2023-03-28T20:18:48.966Z,8.80
2023-03-28T20:21:17.080Z,7.35
2023-03-28T20:23:45.392Z,9.73
2023-03-28T20:26:16.138Z,7.85
2023-03-28T20:28:46.839Z,6.78
2023-03-28T20:31:15.165Z,7.03
2023-03-28T20:33:43.295Z,6.07
2023-03-28T20:36:14.222Z,7.07
2023-03-28T20:38:42.378Z,7.57
2023-03-28T20:41:12.054Z,9.00
2023-03-28T20:43:46.994Z,5.50
2023-03-28T20:46:18.389Z,5.95
2023-03-28T20:48:48.253Z,4.75
2023-03-28T20:51:18.839Z,6.18
2023-03-28T20:53:49.769Z,4.75
2023-03-28T20:56:19.188Z,6.07
2023-03-28T20:58:47.724Z,6.88
2023-03-28T21:01:17.803Z,5.78
2023-03-28T21:03:49.976Z,6.25
2023-03-28T21:06:21.369Z,3.78
2023-03-28T21:08:51.074Z,6.75
2023-03-28T21:11:21.205Z,5.35
2023-03-28T21:13:49.308Z,5.13
2023-03-28T21:16:18.039Z,5.57
2023-03-28T21:18:46.827Z,5.55
2023-03-28T21:21:16.986Z,5.95
2023-03-28T21:23:47.756Z,5.78
2023-03-28T21:26:17.965Z,6.95
2023-03-28T21:28:46.457Z,6.13
2023-03-28T21:31:16.389Z,5.80
2023-03-28T21:33:45.761Z,6.25
2023-03-28T21:36:17.067Z,5.97
2023-03-28T21:38:48.266Z,5.07
2023-03-28T21:41:16.951Z,5.68
2023-03-28T21:43:45.079Z,7.40
2023-03-28T21:46:15.031Z,5.93
2023-03-28T21:48:44.606Z,4.82
2023-03-28T21:51:13.153Z,6.78
2023-03-28T21:53:42.327Z,7.18
2023-03-28T21:56:14.334Z,5.95
2023-03-28T21:58:43.149Z,6.28
2023-03-28T22:01:13.951Z,7.65
2023-03-28T22:03:42.537Z,5.53
2023-03-28T22:06:11.547Z,5.97
2023-03-28T22:08:39.803Z,5.47
2023-03-28T22:11:14.792Z,6.60
2023-03-28T22:13:44.922Z,5.38
2023-03-28T22:16:15.480Z,6.13
2023-03-28T22:18:49.528Z,7.00
2023-03-28T22:21:17.735Z,7.93
2023-03-28T22:23:47.512Z,6.05
2023-03-28T22:26:17.936Z,6.50
2023-03-28T22:28:46.230Z,5.22
2023-03-28T22:31:16.968Z,5.20
2023-03-28T22:33:45.153Z,5.82
2023-03-28T22:36:13.755Z,5.70
2023-03-28T22:38:42.049Z,7.68
2023-03-28T22:41:10.263Z,6.05
2023-03-28T22:43:42.599Z,6.05
2023-03-28T22:46:12.628Z,6.35
2023-03-28T22:48:42.067Z,5.65
2023-03-28T22:51:11.835Z,7.20
2023-03-28T22:53:40.655Z,7.97
2023-03-28T22:56:10.313Z,5.93
2023-03-28T22:58:40.143Z,5.10
2023-03-28T23:01:08.977Z,6.32
2023-03-28T23:03:37.492Z,6.22
2023-03-28T23:06:06.821Z,6.32
2023-03-28T23:08:35.284Z,7.55
2023-03-28T23:11:03.780Z,7.15
2023-03-28T23:13:32.183Z,5.07
2023-03-28T23:16:02.756Z,6.45
2023-03-28T23:18:31.253Z,7.60
2023-03-28T23:20:59.347Z,8.57
2023-03-28T23:23:27.419Z,5.15
2023-03-28T23:25:55.427Z,6.18
2023-03-28T23:28:23.348Z,5.70
2023-03-28T23:30:51.412Z,9.15
2023-03-28T23:33:20.844Z,5.10
2023-03-28T23:35:48.960Z,7.40
2023-03-28T23:38:17.487Z,5.32
2023-03-28T23:40:46.065Z,6.13
2023-03-28T23:43:14.233Z,7.75
2023-03-28T23:45:42.428Z,7.18
2023-03-28T23:48:11.056Z,7.00
2023-03-28T23:50:41.121Z,6.00
2023-03-28T23:53:09.727Z,5.00
2023-03-28T23:55:37.782Z,6.10
2023-03-28T23:58:05.796Z,5.93
